Delft, Netherlands

1:48 AM CET on February 13, 2016 (GMT +0100)
Delft | | Change Station
CLOSE
Current Station
Personal Weather Station
Location: Zuid Holland, Netherlands
Elevation: -6 ft
Nearby Weather Stations

Elev -6 ft 51.98 °N, 4.34 °E | Updated 2 seconds ago

Clear
Clear
34.5 °F
Feels Like 34.5 °F
N
1.2
Wind Variable Wind from East
Gusts 3.5 mph

Today
High -- | Low -- °F
--% Chance of Precip.
Yesterday
High -- | Low -- °F
Precip. -- in
Pressure 29.42 in
Visibility 5.0 miles
Clouds
Dew Point 31.9 °F
Humidity 90%
Rainfall 0.00 in
Snow Depth Not available.
8:02 AM 5:51 PM
Waxing Crescent, 25% visible
METAR EHRD 130025Z AUTO 07004KT 8000 NCD M01/M02 Q0996 NOSIG
Pressure 29.42 in
Visibility 5.0 miles
Clouds
Dew Point 31.9 °F
Humidity 90%
Rainfall 0.00 in
Snow Depth Not available.
8:02 AM 5:51 PM
Waxing Crescent, 25% visible
METAR EHRD 130025Z AUTO 07004KT 8000 NCD M01/M02 Q0996 NOSIG

10-Day Weather Forecast

Almanac

Astronomy

Feb. 13, 2016 Rise Set
Actual Time
Civil Twilight
Nautical Twilight
Astronomical Twilight
Moon
Length of Visible Light
Length of Day
Tomorrow will be .
, % of the Moon is Illuminated

Today's Extremes

Country Highs Country Lows

Community

WunderPhotos

Upload Photos

1,892,444 photos uploaded!

WunderBlog® & News

Nearby

Air Quality

  Air Quality AQ Index Pollutant
Not available.

Snow Depth

Station Depth Elevation

Earthquake Activity

City Distance Mag. Time & Date
Minimum magnitude displayed is 2.5.

Coastal Water Temperatures

Place Temperature

Stations

Nearby Weather Stations

Station Location Temp. Windchill Dew Point Humidity Wind Precip. Elev Updated Type